Aérodrome :
LOGIN :

S'inscrire | Disclaimer

   EN    FR    IT 

 










Légende :    VFR   VFR Marginal   IFR   IFR Intensif   IFR Très Intensif
Visi : 
Plafond : 
>= 8 km
>= 3000ft
5 à 8 km
1000 à 3000 ft
1500m à 5 km
500 à 1000 ft
800 à 1500m
200 à 500 ft
< 800m
< 200 ft
Symboles :   Orages  Brouillard  Fortes neiges  Fortes précipitations  Vent > 20 kt
SIGMETs :   Divers  Orages  Givrage  Turbulence  Onde Orograph.  Cendres Volcan.






- Altitude de l'aérodrome : 82 ft
- Code IATA : ALG


DAAG - Alger Houari Boumedienne

DERNIER METAR :
  • 210530Z VRB02KT 9999 FEW023 SCT080 11/10 Q1012

METARs EXPIRÉS :
  • 210500Z 25003KT 220V290 9999 FEW023 BKN080 11/10 Q1011
  • 210430Z 24003KT 200V280 9999 FEW023 BKN080 12/10 Q1011
  • 210400Z 25003KT 220V280 9999 FEW023 BKN080 12/10 Q1012
  • 210330Z 29004KT 240V300 9999 FEW023 BKN080 11/10 Q1012
  • 210300Z 26003KT 220V290 9999 FEW023 BKN080 12/10 Q1012
  • 210230Z 24006KT 9999 FEW023 SCT053 BKN080 12/10 Q1012

TAF TAF DAAG
Valide du 21 à 00h jusqu'au 22 à 00h UTC


202300Z 2100/2124 23008KT 9999 FEW023 SCT090
PROB30
TEMPO 2100/2106 5000 -RA FEW026CB
PROB40
TEMPO 2118/2124 FEW026CB



MET'MAP, la Météo Aéronautique d'un coup d'oeil ! - Copyright ORBIFLY Décembre 2007 - Disclaimer

ORBIFLY MET'MAP TEAM :

Programmation & Développement : Alexandra Zaïnal
Conception & Développement : Baudouin d'Aumeries
Co-Programmation & Développement : Marc-Olivier Méhu
Soutien technique & logistique : Manuel Goepfert

Contact : metmap@orbifly.com




SOURCES & CREDITS :

   NOAA